createdAt,value
2017-02-27T00:00:02.271Z,10.59
2017-02-27T00:00:42.714Z,10.61
2017-02-27T00:01:23.148Z,10.64
2017-02-27T00:02:03.594Z,10.58
2017-02-27T00:02:43.975Z,10.48
2017-02-27T00:03:24.376Z,10.48
2017-02-27T00:04:04.801Z,10.53
2017-02-27T00:04:45.183Z,10.48
2017-02-27T00:05:25.651Z,10.46
2017-02-27T00:06:06.106Z,10.48
2017-02-27T00:06:46.656Z,10.49
2017-02-27T00:07:27.042Z,10.45
2017-02-27T00:08:07.403Z,10.45
2017-02-27T00:08:47.816Z,10.46
2017-02-27T00:09:28.389Z,10.49
2017-02-27T00:10:08.818Z,10.46
2017-02-27T00:10:49.261Z,10.41
2017-02-27T00:11:29.761Z,10.42
2017-02-27T00:12:10.216Z,10.43
2017-02-27T00:12:50.634Z,10.42
2017-02-27T00:13:31.232Z,10.34
2017-02-27T00:14:11.649Z,10.41
2017-02-27T00:14:52.016Z,10.39
2017-02-27T00:15:32.422Z,10.45
2017-02-27T00:16:12.803Z,10.45
2017-02-27T00:16:53.450Z,10.45
2017-02-27T00:17:33.886Z,10.42
2017-02-27T00:18:14.240Z,10.46
2017-02-27T00:18:54.654Z,10.46
2017-02-27T00:19:35.063Z,10.49
2017-02-27T00:20:15.468Z,10.3
2017-02-27T00:20:55.838Z,10.45
2017-02-27T00:21:36.339Z,10.38
2017-02-27T00:22:16.856Z,10.43
2017-02-27T00:22:57.435Z,10.45
2017-02-27T00:23:37.845Z,10.41
2017-02-27T00:24:18.293Z,10.48
2017-02-27T00:24:58.734Z,10.46
2017-02-27T00:25:39.291Z,10.38
2017-02-27T00:26:19.771Z,10.53
2017-02-27T00:27:00.285Z,10.45
2017-02-27T00:27:40.687Z,10.41
2017-02-27T00:28:21.084Z,10.42
2017-02-27T00:29:01.518Z,10.45
2017-02-27T00:29:41.958Z,10.42
2017-02-27T00:30:22.483Z,10.39
2017-02-27T00:31:02.860Z,10.46
2017-02-27T00:31:43.277Z,10.38
2017-02-27T00:32:23.685Z,10.43
2017-02-27T00:33:04.133Z,10.46
2017-02-27T00:33:44.553Z,10.49
2017-02-27T00:34:24.985Z,10.42
2017-02-27T00:35:05.370Z,10.46
2017-02-27T00:35:45.758Z,10.39
2017-02-27T00:36:26.354Z,10.43
2017-02-27T00:37:06.801Z,10.45
2017-02-27T00:37:47.152Z,10.48
2017-02-27T00:38:27.631Z,10.41
2017-02-27T00:39:08.106Z,10.46
2017-02-27T00:39:48.411Z,10.42
2017-02-27T00:40:28.901Z,10.42
2017-02-27T00:41:09.290Z,10.41
2017-02-27T00:41:49.721Z,10.49
2017-02-27T00:42:30.171Z,10.42
2017-02-27T00:43:10.655Z,10.42
2017-02-27T00:43:51.034Z,10.45
2017-02-27T00:44:31.507Z,10.43
2017-02-27T00:45:11.863Z,10.39
2017-02-27T00:45:52.313Z,10.41
2017-02-27T00:46:32.721Z,10.48
2017-02-27T00:47:13.243Z,10.45
2017-02-27T00:47:53.574Z,10.45
2017-02-27T00:48:33.991Z,10.46
2017-02-27T00:49:14.394Z,10.48
2017-02-27T00:49:54.803Z,10.42
2017-02-27T00:50:35.158Z,10.46
2017-02-27T00:51:15.608Z,10.42
2017-02-27T00:51:55.945Z,10.28
2017-02-27T00:52:36.413Z,10.42
2017-02-27T00:53:16.835Z,10.39
2017-02-27T00:53:57.268Z,10.36
2017-02-27T00:54:37.657Z,10.28
2017-02-27T00:55:18.039Z,10.33
2017-02-27T00:55:58.475Z,10.42
2017-02-27T00:56:38.858Z,10.34
2017-02-27T00:57:19.237Z,10.42
2017-02-27T00:57:59.807Z,10.33
2017-02-27T00:58:40.204Z,10.33
2017-02-27T00:59:20.612Z,10.38
2017-02-27T01:00:01.019Z,10.43
2017-02-27T01:00:41.382Z,10.33
2017-02-27T01:01:21.819Z,10.3
2017-02-27T01:02:02.223Z,10.34
2017-02-27T01:02:42.684Z,10.39
2017-02-27T01:03:23.091Z,10.28
2017-02-27T01:04:03.688Z,10.41
2017-02-27T01:04:44.107Z,10.34
2017-02-27T01:05:24.539Z,10.3
2017-02-27T01:06:04.857Z,10.33
2017-02-27T01:06:45.335Z,10.36
2017-02-27T01:07:25.723Z,10.3
2017-02-27T01:08:06.374Z,10.27
2017-02-27T01:08:46.926Z,10.27
2017-02-27T01:09:27.406Z,10.31
2017-02-27T01:10:07.804Z,10.34
2017-02-27T01:10:48.127Z,10.34
2017-02-27T01:11:28.536Z,10.31
2017-02-27T01:12:08.956Z,10.34
2017-02-27T01:12:49.374Z,10.3
2017-02-27T01:13:29.782Z,10.42
2017-02-27T01:14:10.159Z,10.31
2017-02-27T01:14:50.812Z,10.31
2017-02-27T01:15:31.220Z,10.36
2017-02-27T01:16:11.675Z,10.27
2017-02-27T01:16:52.110Z,10.36
2017-02-27T01:17:32.550Z,10.3
2017-02-27T01:18:13.013Z,10.33
2017-02-27T01:18:53.510Z,10.45
2017-02-27T01:19:33.921Z,10.33
2017-02-27T01:20:14.716Z,10.33
2017-02-27T01:20:55.108Z,10.28
2017-02-27T01:21:35.572Z,10.34
2017-02-27T01:22:16.418Z,10.33
2017-02-27T01:22:56.828Z,10.39
2017-02-27T01:23:37.221Z,10.3
2017-02-27T01:24:17.709Z,10.36
2017-02-27T01:24:58.837Z,10.3
2017-02-27T01:25:39.259Z,10.34
2017-02-27T01:26:21.302Z,10.33
2017-02-27T01:27:03.374Z,10.27
2017-02-27T01:27:43.781Z,10.33
2017-02-27T01:28:24.257Z,10.33
2017-02-27T01:29:04.677Z,10.33
2017-02-27T01:29:49.573Z,10.34
2017-02-27T01:31:28.550Z,10.33
2017-02-27T01:32:08.872Z,10.33
2017-02-27T01:32:49.257Z,10.33
2017-02-27T01:33:29.745Z,10.31
2017-02-27T01:34:10.145Z,10.3
2017-02-27T01:34:50.546Z,10.34
2017-02-27T01:36:51.772Z,10.28
2017-02-27T01:38:12.588Z,10.34
2017-02-27T01:40:57.836Z,10.33
2017-02-27T01:45:43.802Z,10.34
2017-02-27T01:46:24.194Z,10.27
2017-02-27T01:47:04.641Z,10.36
2017-02-27T01:48:25.433Z,10.34
2017-02-27T01:49:05.846Z,10.33
2017-02-27T01:52:27.880Z,10.36
2017-02-27T01:53:08.348Z,10.3
2017-02-27T01:53:48.788Z,10.34
2017-02-27T01:54:29.155Z,10.28
2017-02-27T01:55:09.574Z,10.31
2017-02-27T01:55:49.927Z,10.31
2017-02-27T01:56:30.383Z,10.33
2017-02-27T01:57:10.805Z,10.33
2017-02-27T01:57:51.420Z,10.31
2017-02-27T01:58:31.832Z,10.33
2017-02-27T01:59:12.268Z,10.3
2017-02-27T01:59:52.800Z,10.34
2017-02-27T02:00:33.174Z,10.3
2017-02-27T02:01:13.597Z,10.43
2017-02-27T02:01:54.224Z,10.41
2017-02-27T02:02:34.626Z,10.46
2017-02-27T02:03:15.808Z,10.36
2017-02-27T02:03:56.436Z,10.43
2017-02-27T02:04:36.705Z,10.43
2017-02-27T02:05:17.191Z,10.42
2017-02-27T02:05:57.586Z,10.45
2017-02-27T02:06:38.112Z,10.43
2017-02-27T02:07:18.513Z,10.43
2017-02-27T02:07:58.976Z,10.45
2017-02-27T02:08:39.364Z,10.43
2017-02-27T02:09:19.872Z,10.43
2017-02-27T02:10:01.940Z,10.42
2017-02-27T02:10:42.344Z,10.45
2017-02-27T02:11:22.744Z,10.46
2017-02-27T02:12:03.198Z,10.45
2017-02-27T02:12:43.563Z,10.46
2017-02-27T02:13:23.994Z,10.45
2017-02-27T02:14:04.386Z,10.42
2017-02-27T02:14:44.904Z,10.39
2017-02-27T02:15:25.198Z,10.45
2017-02-27T02:16:05.605Z,10.43
2017-02-27T02:16:46.033Z,10.45
2017-02-27T02:17:26.448Z,10.45
2017-02-27T02:18:06.839Z,10.48
2017-02-27T02:18:47.203Z,10.46
2017-02-27T02:19:27.646Z,10.46
2017-02-27T02:20:08.093Z,10.41
2017-02-27T02:20:48.500Z,10.45
2017-02-27T02:21:29.086Z,10.42
2017-02-27T02:22:09.469Z,10.46
2017-02-27T02:22:49.891Z,10.41
2017-02-27T02:23:30.311Z,10.41
2017-02-27T02:24:10.681Z,10.43
2017-02-27T02:24:51.083Z,10.45
2017-02-27T02:25:31.473Z,10.41
2017-02-27T02:26:11.913Z,10.45
2017-02-27T02:26:52.301Z,10.42
2017-02-27T02:27:32.650Z,10.43
2017-02-27T02:28:13.107Z,10.41
2017-02-27T02:28:53.502Z,10.55
2017-02-27T02:29:33.884Z,10.42
2017-02-27T02:30:14.314Z,10.45
2017-02-27T02:30:54.714Z,10.46
2017-02-27T02:31:35.116Z,10.51
2017-02-27T02:32:15.558Z,10.45
2017-02-27T02:32:55.981Z,10.42
2017-02-27T02:33:36.384Z,10.41
2017-02-27T02:34:16.779Z,10.46
2017-02-27T02:34:58.739Z,10.43
2017-02-27T02:35:39.118Z,10.46
2017-02-27T02:36:19.536Z,10.42
2017-02-27T02:36:59.993Z,10.48
2017-02-27T02:37:40.356Z,10.46
2017-02-27T02:38:20.726Z,10.46
2017-02-27T02:39:01.154Z,10.46
2017-02-27T02:39:41.560Z,10.43
2017-02-27T02:40:21.965Z,10.46
2017-02-27T02:41:02.451Z,10.46
2017-02-27T02:41:42.852Z,10.45
2017-02-27T02:42:23.304Z,10.46
2017-02-27T02:43:03.678Z,10.46
2017-02-27T02:43:44.113Z,10.43
2017-02-27T02:44:24.549Z,10.49
2017-02-27T02:45:04.907Z,10.53
2017-02-27T02:45:45.426Z,10.49
2017-02-27T02:46:25.763Z,10.48
2017-02-27T02:47:06.155Z,10.46
2017-02-27T02:47:46.691Z,10.55
2017-02-27T02:48:27.065Z,10.49
2017-02-27T02:49:07.538Z,10.46
2017-02-27T02:49:47.917Z,10.48
2017-02-27T02:50:28.375Z,10.51
2017-02-27T02:51:08.749Z,10.46
2017-02-27T02:51:49.090Z,10.53
2017-02-27T02:52:29.596Z,10.51
2017-02-27T02:53:09.962Z,10.57
2017-02-27T02:53:50.411Z,10.53
2017-02-27T02:54:30.882Z,10.57
2017-02-27T02:55:11.274Z,10.58
2017-02-27T02:55:51.708Z,10.51
2017-02-27T02:56:32.123Z,10.53
2017-02-27T02:57:12.551Z,10.61
2017-02-27T02:57:52.983Z,10.59
2017-02-27T02:58:33.359Z,10.55
2017-02-27T02:59:13.757Z,10.53
2017-02-27T02:59:54.185Z,10.58
2017-02-27T03:00:34.542Z,10.48
2017-02-27T03:01:14.950Z,10.53
2017-02-27T03:01:55.380Z,10.55
2017-02-27T03:02:35.823Z,10.55
2017-02-27T03:03:16.226Z,10.55
2017-02-27T03:03:56.773Z,10.48
2017-02-27T03:04:37.199Z,10.55
2017-02-27T03:05:17.593Z,10.57
2017-02-27T03:05:58.107Z,10.49
2017-02-27T03:06:38.513Z,10.43
2017-02-27T03:07:18.923Z,10.45
2017-02-27T03:07:59.417Z,10.45
2017-02-27T03:08:39.852Z,10.53
2017-02-27T03:09:20.220Z,10.45
2017-02-27T03:10:00.650Z,10.51
2017-02-27T03:10:41.049Z,10.42
2017-02-27T03:11:21.411Z,10.49
2017-02-27T03:12:01.899Z,10.43
2017-02-27T03:12:42.263Z,10.46
2017-02-27T03:13:22.677Z,10.49
2017-02-27T03:14:03.063Z,10.51
2017-02-27T03:14:43.516Z,10.51
2017-02-27T03:15:23.916Z,10.51
2017-02-27T03:16:04.294Z,10.46
2017-02-27T03:16:44.682Z,10.48
2017-02-27T03:17:25.119Z,10.55
2017-02-27T03:18:05.506Z,10.51
2017-02-27T03:18:45.951Z,10.42
2017-02-27T03:19:26.379Z,10.46
2017-02-27T03:20:06.762Z,10.45
2017-02-27T03:20:47.141Z,10.49
2017-02-27T03:21:27.598Z,10.45
2017-02-27T03:22:07.973Z,10.51
2017-02-27T03:22:48.373Z,10.46
2017-02-27T03:23:28.831Z,10.53
2017-02-27T03:24:09.244Z,10.55
2017-02-27T03:24:49.629Z,10.41
2017-02-27T03:25:30.084Z,10.41
2017-02-27T03:26:10.444Z,10.42
2017-02-27T03:26:50.969Z,10.42
2017-02-27T03:27:31.471Z,10.43
2017-02-27T03:28:11.838Z,10.43
2017-02-27T03:28:52.275Z,10.39
2017-02-27T03:29:32.658Z,10.41
2017-02-27T03:30:13.114Z,10.45
2017-02-27T03:30:53.449Z,10.45
2017-02-27T03:31:33.891Z,10.43
2017-02-27T03:32:14.319Z,10.46
2017-02-27T03:32:54.707Z,10.49
2017-02-27T03:33:35.199Z,10.43
2017-02-27T03:34:15.623Z,10.48
2017-02-27T03:34:55.982Z,10.43
2017-02-27T03:35:36.408Z,10.41
2017-02-27T03:36:16.804Z,10.46
2017-02-27T03:36:57.402Z,10.41
2017-02-27T03:37:37.823Z,10.46
2017-02-27T03:38:18.235Z,10.41
2017-02-27T03:38:58.657Z,10.43
2017-02-27T03:39:39.086Z,10.42
2017-02-27T03:40:19.563Z,10.49
2017-02-27T03:40:59.949Z,10.49
2017-02-27T03:41:40.346Z,10.43
2017-02-27T03:42:20.759Z,10.45
2017-02-27T03:43:01.136Z,10.45
2017-02-27T03:43:41.544Z,10.46
2017-02-27T03:44:22.025Z,10.48
2017-02-27T03:45:02.414Z,10.43
2017-02-27T03:45:42.979Z,10.46
2017-02-27T03:46:23.429Z,10.34
2017-02-27T03:47:04.043Z,10.46
2017-02-27T03:47:44.466Z,10.39
2017-02-27T03:48:24.836Z,10.39
2017-02-27T03:49:05.268Z,10.45
2017-02-27T03:49:45.719Z,10.39
2017-02-27T03:50:26.144Z,10.39
2017-02-27T03:51:06.510Z,10.48
2017-02-27T03:51:46.953Z,10.46
2017-02-27T03:52:27.400Z,10.46
2017-02-27T03:53:07.814Z,10.45
2017-02-27T03:53:48.203Z,10.41
2017-02-27T03:54:28.611Z,10.45
2017-02-27T03:55:09.079Z,10.43
2017-02-27T03:55:49.453Z,10.39
2017-02-27T03:56:29.819Z,10.39
2017-02-27T03:57:10.224Z,10.42
2017-02-27T03:57:50.606Z,10.42
2017-02-27T03:58:31.068Z,10.41
2017-02-27T03:59:11.527Z,10.3
2017-02-27T03:59:51.944Z,10.33
2017-02-27T04:00:32.274Z,10.31
2017-02-27T04:01:12.721Z,10.33
2017-02-27T04:01:53.126Z,10.33
2017-02-27T04:02:33.535Z,10.33
2017-02-27T04:03:13.944Z,10.33
2017-02-27T04:03:54.319Z,10.33
2017-02-27T04:04:34.786Z,10.34
2017-02-27T04:05:15.161Z,10.34
2017-02-27T04:05:55.635Z,10.42
2017-02-27T04:06:36.029Z,10.3
2017-02-27T04:07:16.382Z,10.27
2017-02-27T04:07:56.850Z,10.34
2017-02-27T04:08:37.252Z,10.3
2017-02-27T04:09:17.672Z,10.34
2017-02-27T04:09:58.042Z,10.3
2017-02-27T04:10:38.469Z,10.33
2017-02-27T04:11:18.887Z,10.34
2017-02-27T04:11:59.272Z,10.34
2017-02-27T04:12:39.687Z,10.33
2017-02-27T04:13:20.067Z,10.38
2017-02-27T04:14:00.520Z,10.3
2017-02-27T04:14:40.897Z,10.33
2017-02-27T04:15:21.324Z,10.31
2017-02-27T04:16:01.767Z,10.34
2017-02-27T04:16:42.168Z,10.27
2017-02-27T04:17:22.560Z,10.34
2017-02-27T04:18:02.997Z,10.33
2017-02-27T04:18:43.414Z,10.27
2017-02-27T04:19:23.810Z,10.3
2017-02-27T04:20:04.257Z,10.33
2017-02-27T04:20:44.705Z,10.3
2017-02-27T04:21:25.100Z,10.31
2017-02-27T04:22:05.503Z,10.3
2017-02-27T04:22:45.962Z,10.31
2017-02-27T04:23:26.413Z,10.28
2017-02-27T04:24:06.851Z,10.28
2017-02-27T04:24:47.338Z,10.3
2017-02-27T04:25:27.811Z,10.38
2017-02-27T04:26:08.171Z,10.28
2017-02-27T04:26:48.621Z,10.34
2017-02-27T04:27:29.063Z,10.34
2017-02-27T04:28:09.454Z,10.34
2017-02-27T04:28:49.800Z,10.41
2017-02-27T04:29:30.236Z,10.28
2017-02-27T04:30:10.665Z,10.41
2017-02-27T04:30:51.111Z,10.42
2017-02-27T04:31:31.560Z,10.43
2017-02-27T04:32:11.937Z,10.43
2017-02-27T04:32:52.352Z,10.41
2017-02-27T04:33:32.751Z,10.42
2017-02-27T04:34:13.231Z,10.46
2017-02-27T04:34:53.606Z,10.45
2017-02-27T04:35:34.006Z,10.45
2017-02-27T04:36:14.430Z,10.42
2017-02-27T04:36:54.838Z,10.43
2017-02-27T04:37:35.193Z,10.39
2017-02-27T04:38:15.636Z,10.43
2017-02-27T04:38:56.058Z,10.36
2017-02-27T04:40:48.693Z,10.42
2017-02-27T04:41:29.075Z,10.46
2017-02-27T04:42:09.492Z,10.33
2017-02-27T04:42:49.888Z,10.41
2017-02-27T04:43:30.279Z,10.48
2017-02-27T04:44:10.756Z,10.45
2017-02-27T04:44:51.134Z,10.43
2017-02-27T04:45:31.549Z,10.45
2017-02-27T04:46:12.006Z,10.48
2017-02-27T04:46:52.435Z,10.49
2017-02-27T04:47:32.845Z,10.46
2017-02-27T04:48:51.284Z,10.59
2017-02-27T04:49:31.816Z,10.57
2017-02-27T04:50:12.070Z,10.59
2017-02-27T04:50:52.544Z,10.62
2017-02-27T04:51:32.925Z,10.57
2017-02-27T04:52:13.302Z,10.55
2017-02-27T04:52:53.700Z,10.61
2017-02-27T04:53:34.131Z,10.57
2017-02-27T04:54:14.532Z,10.59
2017-02-27T04:54:54.931Z,10.53
2017-02-27T04:55:35.330Z,10.55
2017-02-27T04:56:15.779Z,10.48
2017-02-27T04:56:56.218Z,10.57
2017-02-27T04:57:36.635Z,10.45
2017-02-27T04:58:17.009Z,10.45
2017-02-27T04:58:57.432Z,10.46
2017-02-27T04:59:37.810Z,10.45
2017-02-27T05:00:18.230Z,10.48
2017-02-27T05:00:58.597Z,10.46
2017-02-27T05:01:39.054Z,10.46
2017-02-27T05:02:19.469Z,10.43
2017-02-27T05:02:59.874Z,10.39
2017-02-27T05:03:40.278Z,10.42
2017-02-27T05:04:20.727Z,10.51
2017-02-27T05:05:01.163Z,10.46
2017-02-27T05:05:41.516Z,10.48
2017-02-27T05:06:21.948Z,10.33
2017-02-27T05:07:02.315Z,10.48
2017-02-27T05:07:42.808Z,10.49
2017-02-27T05:08:23.180Z,10.43
2017-02-27T05:09:03.554Z,10.42
2017-02-27T05:09:44.003Z,10.45
2017-02-27T05:10:24.461Z,10.45
2017-02-27T05:11:04.879Z,10.43
2017-02-27T05:11:45.319Z,10.42
2017-02-27T05:12:25.821Z,10.38
2017-02-27T05:13:06.208Z,10.45
2017-02-27T05:13:46.700Z,10.41
2017-02-27T05:14:27.170Z,10.45
2017-02-27T05:15:07.585Z,10.42
2017-02-27T05:15:47.924Z,10.39
2017-02-27T05:16:28.364Z,10.36
2017-02-27T05:17:08.791Z,10.48
2017-02-27T05:17:49.195Z,10.42
2017-02-27T05:18:29.625Z,10.31
2017-02-27T05:19:10.050Z,10.36
2017-02-27T05:19:50.491Z,10.31
2017-02-27T05:20:30.915Z,10.34
2017-02-27T05:21:11.341Z,10.33
2017-02-27T05:21:51.745Z,10.39
2017-02-27T05:22:32.178Z,10.33
2017-02-27T05:23:12.593Z,10.39
2017-02-27T05:23:53.012Z,10.33
2017-02-27T05:24:33.380Z,10.33
2017-02-27T05:25:13.813Z,10.3
2017-02-27T05:25:54.202Z,10.28
2017-02-27T05:26:34.627Z,10.3
2017-02-27T05:27:15.023Z,10.31
2017-02-27T05:27:55.477Z,10.31
2017-02-27T05:28:35.858Z,10.34
2017-02-27T05:29:16.308Z,10.33
2017-02-27T05:29:56.716Z,10.34
2017-02-27T05:30:37.183Z,10.34
2017-02-27T05:31:17.545Z,10.42
2017-02-27T05:31:58.145Z,10.31
2017-02-27T05:32:38.505Z,10.27
2017-02-27T05:33:18.979Z,10.34
2017-02-27T05:33:59.331Z,10.34
2017-02-27T05:34:39.719Z,10.36
2017-02-27T05:35:20.187Z,10.3
2017-02-27T05:36:00.590Z,10.34
2017-02-27T05:36:41.015Z,10.28
2017-02-27T05:37:21.454Z,10.34
2017-02-27T05:38:01.894Z,10.31
2017-02-27T05:38:42.281Z,10.31
2017-02-27T05:39:22.689Z,10.3
2017-02-27T05:40:03.099Z,10.3
2017-02-27T05:40:43.523Z,10.33
2017-02-27T05:41:23.940Z,10.3
2017-02-27T05:42:04.310Z,10.3
2017-02-27T05:42:44.735Z,10.31
2017-02-27T05:43:25.114Z,10.34
2017-02-27T05:44:05.503Z,10.24
2017-02-27T05:44:46.297Z,10.31
2017-02-27T05:45:26.706Z,10.38
2017-02-27T05:46:07.378Z,10.31
2017-02-27T05:46:47.812Z,10.24
2017-02-27T05:47:28.255Z,10.33
2017-02-27T05:48:08.643Z,10.25
2017-02-27T05:48:49.057Z,10.39
2017-02-27T05:49:29.408Z,10.3
2017-02-27T05:50:09.812Z,10.24
2017-02-27T05:50:50.332Z,10.28
2017-02-27T05:51:30.823Z,10.24
2017-02-27T05:52:11.193Z,10.31
2017-02-27T05:52:51.589Z,10.21
2017-02-27T05:53:32.088Z,10.31
2017-02-27T05:54:12.466Z,10.3
2017-02-27T05:54:52.913Z,10.31
2017-02-27T05:55:33.278Z,10.18
2017-02-27T05:56:13.688Z,10.38
2017-02-27T05:56:54.082Z,10.25
2017-02-27T05:57:34.491Z,10.27
2017-02-27T05:58:14.926Z,10.28
2017-02-27T05:58:55.283Z,10.3
2017-02-27T05:59:35.707Z,10.31
2017-02-27T06:00:16.131Z,10.23
2017-02-27T06:00:56.722Z,10.3
2017-02-27T06:01:37.088Z,10.3
2017-02-27T06:02:17.439Z,10.28
2017-02-27T06:02:57.998Z,10.28
2017-02-27T06:03:38.412Z,10.31
2017-02-27T06:04:18.833Z,10.36
2017-02-27T06:04:59.241Z,10.31
2017-02-27T06:05:39.647Z,10.25
2017-02-27T06:06:20.119Z,10.27
2017-02-27T06:07:00.505Z,10.33
2017-02-27T06:07:40.949Z,10.3
2017-02-27T06:08:21.364Z,10.31
2017-02-27T06:09:01.809Z,10.33
2017-02-27T06:09:42.194Z,10.33
2017-02-27T06:10:22.619Z,10.3
2017-02-27T06:11:03.047Z,10.31
2017-02-27T06:11:43.473Z,10.3
2017-02-27T06:12:23.845Z,10.28
2017-02-27T06:13:04.797Z,10.3
2017-02-27T06:13:45.267Z,10.36
2017-02-27T06:14:25.650Z,10.28
2017-02-27T06:15:06.031Z,10.31
2017-02-27T06:15:46.423Z,10.38
2017-02-27T06:16:26.834Z,10.3
2017-02-27T06:17:07.243Z,10.33
2017-02-27T06:17:47.602Z,10.34
2017-02-27T06:18:28.026Z,10.3
2017-02-27T06:19:08.419Z,10.31
2017-02-27T06:19:48.820Z,10.31
2017-02-27T06:20:29.227Z,10.36
2017-02-27T06:21:09.685Z,10.3
2017-02-27T06:21:50.102Z,10.34
2017-02-27T06:22:30.502Z,10.33
2017-02-27T06:23:10.917Z,10.34
2017-02-27T06:23:51.291Z,10.34
2017-02-27T06:24:31.721Z,10.28
2017-02-27T06:25:12.204Z,10.34
2017-02-27T06:25:52.604Z,10.3
2017-02-27T06:26:33.033Z,10.34
2017-02-27T06:27:13.489Z,10.31
2017-02-27T06:27:53.893Z,10.31
2017-02-27T06:28:34.291Z,10.3
2017-02-27T06:29:14.695Z,10.23
2017-02-27T06:29:55.104Z,10.3
2017-02-27T06:30:35.499Z,10.27
2017-02-27T06:31:15.943Z,10.28
2017-02-27T06:31:56.422Z,10.31
2017-02-27T06:32:36.838Z,10.33
2017-02-27T06:33:17.237Z,10.34
2017-02-27T06:33:57.637Z,10.27
2017-02-27T06:34:38.048Z,10.36
2017-02-27T06:35:18.483Z,10.31
2017-02-27T06:35:59.294Z,10.33
2017-02-27T06:36:39.557Z,10.28
2017-02-27T06:37:20.001Z,10.33
2017-02-27T06:38:00.416Z,10.3
2017-02-27T06:38:40.835Z,10.3
2017-02-27T06:39:21.265Z,10.31
2017-02-27T06:40:01.645Z,10.36
2017-02-27T06:40:42.161Z,10.3
2017-02-27T06:41:22.644Z,10.36
2017-02-27T06:42:03.059Z,10.34
2017-02-27T06:42:43.470Z,10.24
2017-02-27T06:43:24.001Z,10.25
2017-02-27T06:44:04.455Z,10.34
2017-02-27T06:44:46.110Z,10.36
2017-02-27T06:45:26.527Z,10.33
2017-02-27T06:46:06.933Z,10.3
2017-02-27T06:46:47.351Z,10.34
2017-02-27T06:47:28.516Z,10.36
2017-02-27T06:48:08.916Z,10.34
2017-02-27T06:48:49.338Z,10.36
2017-02-27T06:49:29.821Z,10.33
2017-02-27T06:50:10.247Z,10.25
2017-02-27T06:50:50.662Z,10.28
2017-02-27T06:51:31.114Z,10.31
2017-02-27T06:52:11.470Z,10.3
2017-02-27T06:52:51.907Z,10.25
2017-02-27T06:53:32.335Z,10.31
2017-02-27T06:54:12.760Z,10.31
2017-02-27T06:54:53.176Z,10.28
2017-02-27T06:55:33.618Z,10.34
2017-02-27T06:56:14.032Z,10.34
2017-02-27T06:56:54.440Z,10.34
2017-02-27T06:57:34.899Z,10.33
2017-02-27T06:58:15.302Z,10.3
2017-02-27T06:58:55.720Z,10.28
2017-02-27T06:59:36.128Z,10.33
2017-02-27T07:00:16.529Z,10.31
2017-02-27T07:00:56.960Z,10.28
2017-02-27T07:01:37.400Z,10.3
2017-02-27T07:02:17.824Z,10.3
2017-02-27T07:02:58.239Z,10.3
2017-02-27T07:03:38.598Z,10.28
2017-02-27T07:04:19.099Z,10.23
2017-02-27T07:04:59.414Z,10.31
2017-02-27T07:05:39.930Z,10.27
2017-02-27T07:06:20.357Z,10.34
2017-02-27T07:07:00.734Z,10.33
2017-02-27T07:07:41.183Z,10.33
2017-02-27T07:08:21.602Z,10.31
2017-02-27T07:09:02.243Z,10.33
2017-02-27T07:09:42.744Z,10.38
2017-02-27T07:10:23.103Z,10.45
2017-02-27T07:11:03.545Z,10.45
2017-02-27T07:11:43.995Z,10.48
2017-02-27T07:12:24.420Z,10.42
2017-02-27T07:13:04.927Z,10.41
2017-02-27T07:13:45.197Z,10.46
2017-02-27T07:14:25.673Z,10.46
2017-02-27T07:15:06.055Z,10.43
2017-02-27T07:15:46.515Z,10.45
2017-02-27T07:16:26.904Z,10.51
2017-02-27T07:17:07.344Z,10.41
2017-02-27T07:17:47.800Z,10.49
2017-02-27T07:18:28.234Z,10.45
2017-02-27T07:19:08.549Z,10.55
2017-02-27T07:19:49.055Z,10.43
2017-02-27T07:20:29.502Z,10.49
2017-02-27T07:21:09.839Z,10.51
2017-02-27T07:21:50.274Z,10.48
2017-02-27T07:22:30.670Z,10.51
2017-02-27T07:23:11.100Z,10.48
2017-02-27T07:23:51.537Z,10.49
2017-02-27T07:24:31.904Z,10.53
2017-02-27T07:25:12.306Z,10.46
2017-02-27T07:25:52.740Z,10.45
2017-02-27T07:26:33.216Z,10.53
2017-02-27T07:27:13.567Z,10.57
2017-02-27T07:27:54.072Z,10.51
2017-02-27T07:28:34.450Z,10.53
2017-02-27T07:29:14.894Z,10.57
2017-02-27T07:29:55.354Z,10.49
2017-02-27T07:30:35.711Z,10.53
2017-02-27T07:31:16.211Z,10.51
2017-02-27T07:31:56.617Z,10.57
2017-02-27T07:32:37.005Z,10.58
2017-02-27T07:33:17.459Z,10.53
2017-02-27T07:33:57.903Z,10.57
2017-02-27T07:34:38.295Z,10.57
2017-02-27T07:35:18.708Z,10.61
2017-02-27T07:35:59.126Z,10.53
2017-02-27T07:36:39.516Z,10.57
2017-02-27T07:37:19.952Z,10.61
2017-02-27T07:38:00.407Z,10.61
2017-02-27T07:38:40.828Z,10.65
2017-02-27T07:39:21.254Z,10.64
2017-02-27T07:40:01.685Z,10.64
2017-02-27T07:40:42.099Z,10.57
2017-02-27T07:41:22.450Z,10.58
2017-02-27T07:42:02.912Z,10.67
2017-02-27T07:42:43.356Z,10.59
2017-02-27T07:43:23.871Z,10.62
2017-02-27T07:44:04.269Z,10.67
2017-02-27T07:44:44.753Z,10.68
2017-02-27T07:45:25.139Z,10.65
2017-02-27T07:46:05.607Z,10.64
2017-02-27T07:46:46.006Z,10.61
2017-02-27T07:47:26.381Z,10.67
2017-02-27T07:48:06.797Z,10.69
2017-02-27T07:48:47.193Z,10.67
2017-02-27T07:49:27.604Z,10.71
2017-02-27T07:50:07.970Z,10.62
2017-02-27T07:50:48.474Z,10.64
2017-02-27T07:51:28.840Z,10.67
2017-02-27T07:52:09.248Z,10.58
2017-02-27T07:52:49.693Z,10.65
2017-02-27T07:53:30.176Z,10.65
2017-02-27T07:54:10.553Z,10.57
2017-02-27T07:54:50.995Z,10.65
2017-02-27T07:55:31.444Z,10.69
2017-02-27T07:56:11.821Z,10.71
2017-02-27T07:56:52.171Z,10.72
2017-02-27T07:57:32.733Z,10.58
2017-02-27T07:58:13.184Z,10.71
2017-02-27T07:58:53.618Z,10.69
2017-02-27T07:59:34.030Z,10.61
2017-02-27T08:00:14.517Z,10.67
2017-02-27T08:00:54.950Z,10.67
2017-02-27T08:01:35.412Z,10.69
2017-02-27T08:02:15.852Z,10.67
2017-02-27T08:02:56.298Z,10.67
2017-02-27T08:03:36.925Z,10.75
2017-02-27T08:04:17.360Z,10.68
2017-02-27T08:04:57.734Z,10.64
2017-02-27T08:05:38.126Z,10.67
2017-02-27T08:06:18.683Z,10.67
2017-02-27T08:06:59.092Z,10.69
2017-02-27T08:07:39.606Z,10.8
2017-02-27T08:08:20.079Z,10.69
2017-02-27T08:09:00.491Z,10.76
2017-02-27T08:09:40.902Z,10.68
2017-02-27T08:10:21.276Z,10.8
2017-02-27T08:11:01.814Z,10.75
2017-02-27T08:11:42.212Z,10.77
2017-02-27T08:12:22.561Z,10.72
2017-02-27T08:13:02.974Z,10.68
2017-02-27T08:13:43.436Z,10.76
2017-02-27T08:14:23.818Z,10.75
2017-02-27T08:15:04.255Z,10.77
2017-02-27T08:15:44.697Z,10.77
2017-02-27T08:16:25.061Z,10.83
2017-02-27T08:17:05.577Z,10.86
2017-02-27T08:17:45.994Z,10.87
2017-02-27T08:18:26.383Z,10.84
2017-02-27T08:19:06.761Z,10.87
2017-02-27T08:19:47.188Z,10.9
2017-02-27T08:20:27.553Z,11
2017-02-27T08:21:07.978Z,10.92
2017-02-27T08:21:48.381Z,11.01
2017-02-27T08:22:28.791Z,11.05
2017-02-27T08:23:09.249Z,11.13
2017-02-27T08:23:49.668Z,11.08
2017-02-27T08:24:30.134Z,11.16
2017-02-27T08:25:10.497Z,11.19
2017-02-27T08:25:50.880Z,11.19
2017-02-27T08:26:31.281Z,11.19
2017-02-27T08:27:11.726Z,11.18
2017-02-27T08:27:52.131Z,11.19
2017-02-27T08:28:32.561Z,11.26
2017-02-27T08:29:13.049Z,11.33
2017-02-27T08:29:53.440Z,11.31
2017-02-27T08:30:33.866Z,11.43
2017-02-27T08:31:14.308Z,11.44
2017-02-27T08:31:54.662Z,11.45
2017-02-27T08:32:35.077Z,11.49
2017-02-27T08:33:15.506Z,11.58
2017-02-27T08:33:55.896Z,11.62
2017-02-27T08:34:36.319Z,11.62
2017-02-27T08:35:16.721Z,11.71
2017-02-27T08:35:57.085Z,11.77
2017-02-27T08:36:37.561Z,11.83
2017-02-27T08:37:17.935Z,11.93
2017-02-27T08:37:58.402Z,11.93
2017-02-27T08:38:38.784Z,11.96
2017-02-27T08:39:19.223Z,11.95
2017-02-27T08:39:59.648Z,11.99
2017-02-27T08:40:40.074Z,12.03
2017-02-27T08:41:20.457Z,12.08
2017-02-27T08:42:00.897Z,12.11
2017-02-27T08:42:41.286Z,11.97
2017-02-27T08:43:21.951Z,12
2017-02-27T08:44:02.566Z,12.08
2017-02-27T08:44:43.037Z,11.99
2017-02-27T08:45:23.460Z,12.07
2017-02-27T08:46:03.866Z,12
2017-02-27T08:46:44.339Z,11.96
2017-02-27T08:47:24.792Z,11.99
2017-02-27T08:48:05.174Z,11.96
2017-02-27T08:48:45.644Z,12
2017-02-27T08:49:25.961Z,12.02
2017-02-27T08:50:06.825Z,12.1
2017-02-27T08:50:47.797Z,12.11
2017-02-27T08:51:28.341Z,12.08
2017-02-27T08:52:08.791Z,12.23
2017-02-27T08:52:49.216Z,12.29
2017-02-27T08:53:30.247Z,12.33
2017-02-27T08:54:10.661Z,12.47
2017-02-27T08:54:51.103Z,12.51
2017-02-27T08:55:32.771Z,12.63
2017-02-27T08:56:13.222Z,12.53